sensor_id;sensor_type;location;lat;lon;timestamp;temperature;humidity
15713;DHT22;7957;51.608;6.916;2022-08-07T00:02:23;17.10;99.90
15713;DHT22;7957;51.608;6.916;2022-08-07T00:04:50;17.10;99.90
15713;DHT22;7957;51.608;6.916;2022-08-07T00:07:17;17.10;99.90
15713;DHT22;7957;51.608;6.916;2022-08-07T00:09:44;17.10;99.90
15713;DHT22;7957;51.608;6.916;2022-08-07T00:12:11;17.00;99.90
15713;DHT22;7957;51.608;6.916;2022-08-07T00:14:38;17.00;99.90
15713;DHT22;7957;51.608;6.916;2022-08-07T00:17:05;17.00;99.90
15713;DHT22;7957;51.608;6.916;2022-08-07T00:19:34;17.00;99.90
15713;DHT22;7957;51.608;6.916;2022-08-07T00:22:00;17.00;99.90
15713;DHT22;7957;51.608;6.916;2022-08-07T00:24:27;16.90;99.90
15713;DHT22;7957;51.608;6.916;2022-08-07T00:26:54;16.90;99.90
15713;DHT22;7957;51.608;6.916;2022-08-07T00:29:21;16.90;99.90
15713;DHT22;7957;51.608;6.916;2022-08-07T00:31:52;16.90;99.90
15713;DHT22;7957;51.608;6.916;2022-08-07T00:34:19;16.80;99.90
15713;DHT22;7957;51.608;6.916;2022-08-07T00:36:48;16.80;99.90
15713;DHT22;7957;51.608;6.916;2022-08-07T00:39:15;16.80;99.90
15713;DHT22;7957;51.608;6.916;2022-08-07T00:41:48;16.80;99.90
15713;DHT22;7957;51.608;6.916;2022-08-07T00:44:15;16.80;99.90
15713;DHT22;7957;51.608;6.916;2022-08-07T00:46:43;16.70;99.90
15713;DHT22;7957;51.608;6.916;2022-08-07T00:49:10;16.70;99.90
15713;DHT22;7957;51.608;6.916;2022-08-07T00:51:36;16.70;99.90
15713;DHT22;7957;51.608;6.916;2022-08-07T00:54:05;16.70;99.90
15713;DHT22;7957;51.608;6.916;2022-08-07T00:56:32;16.70;99.90
15713;DHT22;7957;51.608;6.916;2022-08-07T00:59:00;16.60;99.90
15713;DHT22;7957;51.608;6.916;2022-08-07T01:01:27;16.60;99.90
15713;DHT22;7957;51.608;6.916;2022-08-07T01:03:54;16.60;99.90
15713;DHT22;7957;51.608;6.916;2022-08-07T01:06:21;16.60;99.90
15713;DHT22;7957;51.608;6.916;2022-08-07T01:08:49;16.60;99.90
15713;DHT22;7957;51.608;6.916;2022-08-07T01:11:17;16.50;99.90
15713;DHT22;7957;51.608;6.916;2022-08-07T01:13:45;16.50;99.90
15713;DHT22;7957;51.608;6.916;2022-08-07T01:16:12;16.50;99.90
15713;DHT22;7957;51.608;6.916;2022-08-07T01:18:39;16.50;99.90
15713;DHT22;7957;51.608;6.916;2022-08-07T01:21:10;16.50;99.90
15713;DHT22;7957;51.608;6.916;2022-08-07T01:23:40;16.50;99.90
15713;DHT22;7957;51.608;6.916;2022-08-07T01:26:07;16.50;99.90
15713;DHT22;7957;51.608;6.916;2022-08-07T01:28:34;16.40;99.90
15713;DHT22;7957;51.608;6.916;2022-08-07T01:31:02;16.40;99.90
15713;DHT22;7957;51.608;6.916;2022-08-07T01:33:30;16.40;99.90
15713;DHT22;7957;51.608;6.916;2022-08-07T01:35:57;16.40;99.90
15713;DHT22;7957;51.608;6.916;2022-08-07T01:38:26;16.40;99.90
15713;DHT22;7957;51.608;6.916;2022-08-07T01:40:54;16.40;99.90
15713;DHT22;7957;51.608;6.916;2022-08-07T01:43:23;16.40;99.90
15713;DHT22;7957;51.608;6.916;2022-08-07T01:45:50;16.30;99.90
15713;DHT22;7957;51.608;6.916;2022-08-07T01:48:17;16.30;99.90
15713;DHT22;7957;51.608;6.916;2022-08-07T01:50:46;16.30;99.90
15713;DHT22;7957;51.608;6.916;2022-08-07T01:53:14;16.30;99.90
15713;DHT22;7957;51.608;6.916;2022-08-07T01:55:48;16.20;99.90
15713;DHT22;7957;51.608;6.916;2022-08-07T01:58:19;16.20;99.90
15713;DHT22;7957;51.608;6.916;2022-08-07T02:00:51;16.20;99.90
15713;DHT22;7957;51.608;6.916;2022-08-07T02:03:21;16.20;99.90
15713;DHT22;7957;51.608;6.916;2022-08-07T02:05:51;16.20;99.90
15713;DHT22;7957;51.608;6.916;2022-08-07T02:08:23;16.20;99.90
15713;DHT22;7957;51.608;6.916;2022-08-07T02:10:52;16.10;99.90
15713;DHT22;7957;51.608;6.916;2022-08-07T02:13:25;16.10;99.90
15713;DHT22;7957;51.608;6.916;2022-08-07T02:15:52;16.10;99.90
15713;DHT22;7957;51.608;6.916;2022-08-07T02:18:21;16.10;99.90
15713;DHT22;7957;51.608;6.916;2022-08-07T02:20:51;16.10;99.90
15713;DHT22;7957;51.608;6.916;2022-08-07T02:23:19;16.10;1.00
15713;DHT22;7957;51.608;6.916;2022-08-07T02:25:47;16.00;1.00
15713;DHT22;7957;51.608;6.916;2022-08-07T02:28:16;16.00;1.00
15713;DHT22;7957;51.608;6.916;2022-08-07T02:30:44;16.00;1.00
15713;DHT22;7957;51.608;6.916;2022-08-07T02:33:13;16.00;1.00
15713;DHT22;7957;51.608;6.916;2022-08-07T02:35:41;16.00;1.00
15713;DHT22;7957;51.608;6.916;2022-08-07T02:38:10;15.90;1.00
15713;DHT22;7957;51.608;6.916;2022-08-07T02:40:37;16.00;1.00
15713;DHT22;7957;51.608;6.916;2022-08-07T02:43:05;16.00;1.00
15713;DHT22;7957;51.608;6.916;2022-08-07T02:45:37;15.90;1.00
15713;DHT22;7957;51.608;6.916;2022-08-07T02:48:05;15.90;1.00
15713;DHT22;7957;51.608;6.916;2022-08-07T02:50:34;15.90;1.00
15713;DHT22;7957;51.608;6.916;2022-08-07T02:53:06;15.90;1.00
15713;DHT22;7957;51.608;6.916;2022-08-07T02:55:36;15.90;1.00
15713;DHT22;7957;51.608;6.916;2022-08-07T02:58:06;15.90;1.00
15713;DHT22;7957;51.608;6.916;2022-08-07T03:00:38;15.80;1.00
15713;DHT22;7957;51.608;6.916;2022-08-07T03:03:08;15.80;1.00
15713;DHT22;7957;51.608;6.916;2022-08-07T03:05:36;15.80;1.00
15713;DHT22;7957;51.608;6.916;2022-08-07T03:08:04;15.80;1.00
15713;DHT22;7957;51.608;6.916;2022-08-07T03:10:32;15.70;1.00
15713;DHT22;7957;51.608;6.916;2022-08-07T03:13:00;15.70;1.00
15713;DHT22;7957;51.608;6.916;2022-08-07T03:15:28;15.70;1.00
15713;DHT22;7957;51.608;6.916;2022-08-07T03:17:57;15.70;1.00
15713;DHT22;7957;51.608;6.916;2022-08-07T03:20:24;15.70;1.00
15713;DHT22;7957;51.608;6.916;2022-08-07T03:22:52;15.70;1.00
15713;DHT22;7957;51.608;6.916;2022-08-07T03:25:21;15.60;1.00
15713;DHT22;7957;51.608;6.916;2022-08-07T03:27:49;15.60;1.00
15713;DHT22;7957;51.608;6.916;2022-08-07T03:30:17;15.60;1.00
15713;DHT22;7957;51.608;6.916;2022-08-07T03:32:46;15.60;1.00
15713;DHT22;7957;51.608;6.916;2022-08-07T03:35:18;15.60;1.00
15713;DHT22;7957;51.608;6.916;2022-08-07T03:37:52;15.60;1.00
15713;DHT22;7957;51.608;6.916;2022-08-07T03:40:19;15.60;1.00
15713;DHT22;7957;51.608;6.916;2022-08-07T03:42:47;15.60;1.00
15713;DHT22;7957;51.608;6.916;2022-08-07T03:45:14;15.50;1.00
15713;DHT22;7957;51.608;6.916;2022-08-07T03:47:42;15.50;1.00
15713;DHT22;7957;51.608;6.916;2022-08-07T03:50:09;15.50;1.00
15713;DHT22;7957;51.608;6.916;2022-08-07T03:52:38;15.50;1.00
15713;DHT22;7957;51.608;6.916;2022-08-07T03:55:06;15.50;1.00
15713;DHT22;7957;51.608;6.916;2022-08-07T03:57:34;15.50;1.00
15713;DHT22;7957;51.608;6.916;2022-08-07T04:00:02;15.50;1.00
15713;DHT22;7957;51.608;6.916;2022-08-07T04:02:30;15.50;1.00
15713;DHT22;7957;51.608;6.916;2022-08-07T04:04:57;15.50;1.00
15713;DHT22;7957;51.608;6.916;2022-08-07T04:07:24;15.40;1.00
15713;DHT22;7957;51.608;6.916;2022-08-07T04:09:53;15.40;1.00
15713;DHT22;7957;51.608;6.916;2022-08-07T04:12:20;15.40;1.00
15713;DHT22;7957;51.608;6.916;2022-08-07T04:14:47;15.40;1.00
15713;DHT22;7957;51.608;6.916;2022-08-07T04:17:20;15.40;1.00
15713;DHT22;7957;51.608;6.916;2022-08-07T04:19:48;15.40;1.00
15713;DHT22;7957;51.608;6.916;2022-08-07T04:22:16;15.30;1.00
15713;DHT22;7957;51.608;6.916;2022-08-07T04:24:44;15.40;1.00
15713;DHT22;7957;51.608;6.916;2022-08-07T04:27:12;15.40;1.00
15713;DHT22;7957;51.608;6.916;2022-08-07T04:29:39;15.40;1.00
15713;DHT22;7957;51.608;6.916;2022-08-07T04:32:08;15.30;1.00
15713;DHT22;7957;51.608;6.916;2022-08-07T04:34:36;15.30;1.00
15713;DHT22;7957;51.608;6.916;2022-08-07T04:37:03;15.30;1.00
15713;DHT22;7957;51.608;6.916;2022-08-07T04:39:30;15.30;1.00
15713;DHT22;7957;51.608;6.916;2022-08-07T04:41:57;15.30;1.00
15713;DHT22;7957;51.608;6.916;2022-08-07T04:44:28;15.30;1.00
15713;DHT22;7957;51.608;6.916;2022-08-07T04:47:02;15.30;1.00
15713;DHT22;7957;51.608;6.916;2022-08-07T04:49:34;15.30;1.00
15713;DHT22;7957;51.608;6.916;2022-08-07T04:52:12;15.30;1.00
15713;DHT22;7957;51.608;6.916;2022-08-07T04:54:46;15.30;1.00
15713;DHT22;7957;51.608;6.916;2022-08-07T04:57:23;15.30;1.00
15713;DHT22;7957;51.608;6.916;2022-08-07T04:59:58;15.30;1.00
15713;DHT22;7957;51.608;6.916;2022-08-07T05:02:29;15.30;1.00
15713;DHT22;7957;51.608;6.916;2022-08-07T05:05:02;15.40;1.00
15713;DHT22;7957;51.608;6.916;2022-08-07T05:07:35;15.40;1.00
15713;DHT22;7957;51.608;6.916;2022-08-07T05:10:07;15.40;1.00
15713;DHT22;7957;51.608;6.916;2022-08-07T05:12:39;15.40;1.00
15713;DHT22;7957;51.608;6.916;2022-08-07T05:15:13;15.40;1.00
15713;DHT22;7957;51.608;6.916;2022-08-07T05:17:45;15.40;1.00
15713;DHT22;7957;51.608;6.916;2022-08-07T05:20:16;15.50;1.00
15713;DHT22;7957;51.608;6.916;2022-08-07T05:22:45;15.50;1.00
15713;DHT22;7957;51.608;6.916;2022-08-07T05:25:15;15.40;1.00
15713;DHT22;7957;51.608;6.916;2022-08-07T05:27:45;15.50;1.00
15713;DHT22;7957;51.608;6.916;2022-08-07T05:30:14;15.50;1.00
15713;DHT22;7957;51.608;6.916;2022-08-07T05:32:43;15.50;1.00
15713;DHT22;7957;51.608;6.916;2022-08-07T05:35:12;15.60;1.00
15713;DHT22;7957;51.608;6.916;2022-08-07T05:37:40;15.60;1.00
15713;DHT22;7957;51.608;6.916;2022-08-07T05:40:09;15.60;1.00
15713;DHT22;7957;51.608;6.916;2022-08-07T05:42:37;15.60;1.00
15713;DHT22;7957;51.608;6.916;2022-08-07T05:45:05;15.60;1.00
15713;DHT22;7957;51.608;6.916;2022-08-07T05:47:34;15.70;1.00
15713;DHT22;7957;51.608;6.916;2022-08-07T05:50:02;15.70;1.00
15713;DHT22;7957;51.608;6.916;2022-08-07T05:52:29;15.70;1.00
15713;DHT22;7957;51.608;6.916;2022-08-07T05:54:56;15.70;1.00
15713;DHT22;7957;51.608;6.916;2022-08-07T05:57:24;15.80;1.00
15713;DHT22;7957;51.608;6.916;2022-08-07T05:59:52;15.80;1.00
15713;DHT22;7957;51.608;6.916;2022-08-07T06:02:20;15.80;1.00
15713;DHT22;7957;51.608;6.916;2022-08-07T06:04:52;15.90;1.00
15713;DHT22;7957;51.608;6.916;2022-08-07T06:07:20;15.90;1.00
15713;DHT22;7957;51.608;6.916;2022-08-07T06:09:48;15.90;1.00
15713;DHT22;7957;51.608;6.916;2022-08-07T06:12:15;15.90;1.00
15713;DHT22;7957;51.608;6.916;2022-08-07T06:14:42;15.90;1.00
15713;DHT22;7957;51.608;6.916;2022-08-07T06:17:09;15.90;1.00
15713;DHT22;7957;51.608;6.916;2022-08-07T06:19:39;16.00;1.00
15713;DHT22;7957;51.608;6.916;2022-08-07T06:22:07;16.00;1.00
15713;DHT22;7957;51.608;6.916;2022-08-07T06:24:35;16.00;1.00
15713;DHT22;7957;51.608;6.916;2022-08-07T06:27:02;16.00;1.00
15713;DHT22;7957;51.608;6.916;2022-08-07T06:29:30;16.10;1.00
15713;DHT22;7957;51.608;6.916;2022-08-07T06:31:58;16.10;1.00
15713;DHT22;7957;51.608;6.916;2022-08-07T06:34:26;16.10;1.00
15713;DHT22;7957;51.608;6.916;2022-08-07T06:36:58;16.10;1.00
15713;DHT22;7957;51.608;6.916;2022-08-07T06:39:27;16.20;1.00
15713;DHT22;7957;51.608;6.916;2022-08-07T06:42:01;16.20;1.00
15713;DHT22;7957;51.608;6.916;2022-08-07T06:44:30;16.20;1.00
15713;DHT22;7957;51.608;6.916;2022-08-07T06:46:58;16.30;1.00
15713;DHT22;7957;51.608;6.916;2022-08-07T06:49:25;16.30;1.00
15713;DHT22;7957;51.608;6.916;2022-08-07T06:51:54;16.30;1.00
15713;DHT22;7957;51.608;6.916;2022-08-07T06:54:24;16.30;1.00
15713;DHT22;7957;51.608;6.916;2022-08-07T06:56:54;16.40;1.00
15713;DHT22;7957;51.608;6.916;2022-08-07T06:59:24;16.40;1.00
15713;DHT22;7957;51.608;6.916;2022-08-07T07:01:52;16.40;1.00
15713;DHT22;7957;51.608;6.916;2022-08-07T07:04:20;16.50;1.00
15713;DHT22;7957;51.608;6.916;2022-08-07T07:06:47;16.50;1.00
15713;DHT22;7957;51.608;6.916;2022-08-07T07:09:21;16.50;1.00
15713;DHT22;7957;51.608;6.916;2022-08-07T07:12:02;16.60;1.00
15713;DHT22;7957;51.608;6.916;2022-08-07T07:14:46;16.60;1.00
15713;DHT22;7957;51.608;6.916;2022-08-07T07:17:18;16.60;1.00
15713;DHT22;7957;51.608;6.916;2022-08-07T07:19:49;16.60;99.90
15713;DHT22;7957;51.608;6.916;2022-08-07T07:22:18;16.70;99.90
15713;DHT22;7957;51.608;6.916;2022-08-07T07:24:45;16.70;99.90
15713;DHT22;7957;51.608;6.916;2022-08-07T07:27:16;16.70;99.90
15713;DHT22;7957;51.608;6.916;2022-08-07T07:29:48;16.80;99.90
15713;DHT22;7957;51.608;6.916;2022-08-07T07:32:17;16.80;99.90
15713;DHT22;7957;51.608;6.916;2022-08-07T07:34:49;16.90;99.90
15713;DHT22;7957;51.608;6.916;2022-08-07T07:37:19;16.90;99.90
15713;DHT22;7957;51.608;6.916;2022-08-07T07:39:46;17.00;99.90
15713;DHT22;7957;51.608;6.916;2022-08-07T07:42:15;17.20;99.90
15713;DHT22;7957;51.608;6.916;2022-08-07T07:44:45;17.30;99.90
15713;DHT22;7957;51.608;6.916;2022-08-07T07:47:13;17.50;99.90
15713;DHT22;7957;51.608;6.916;2022-08-07T07:49:42;17.70;99.90
15713;DHT22;7957;51.608;6.916;2022-08-07T07:52:11;17.80;99.90
15713;DHT22;7957;51.608;6.916;2022-08-07T07:54:41;18.00;99.90
15713;DHT22;7957;51.608;6.916;2022-08-07T07:57:09;18.10;99.90
15713;DHT22;7957;51.608;6.916;2022-08-07T07:59:40;18.20;99.90
15713;DHT22;7957;51.608;6.916;2022-08-07T08:02:10;18.30;99.90
15713;DHT22;7957;51.608;6.916;2022-08-07T08:04:38;18.40;99.90
15713;DHT22;7957;51.608;6.916;2022-08-07T08:07:07;18.40;99.90
15713;DHT22;7957;51.608;6.916;2022-08-07T08:09:34;18.50;99.90
15713;DHT22;7957;51.608;6.916;2022-08-07T08:12:02;18.60;99.90
15713;DHT22;7957;51.608;6.916;2022-08-07T08:14:30;18.60;99.90
15713;DHT22;7957;51.608;6.916;2022-08-07T08:17:00;18.70;99.90
15713;DHT22;7957;51.608;6.916;2022-08-07T08:19:28;18.70;99.90
15713;DHT22;7957;51.608;6.916;2022-08-07T08:21:57;18.80;93.40
15713;DHT22;7957;51.608;6.916;2022-08-07T08:24:43;18.90;86.70
15713;DHT22;7957;51.608;6.916;2022-08-07T08:27:32;18.90;54.90
15713;DHT22;7957;51.608;6.916;2022-08-07T08:30:03;19.00;41.00
15713;DHT22;7957;51.608;6.916;2022-08-07T08:32:36;19.10;18.40
15713;DHT22;7957;51.608;6.916;2022-08-07T08:35:06;19.20;1.00
15713;DHT22;7957;51.608;6.916;2022-08-07T08:37:36;19.30;1.00
15713;DHT22;7957;51.608;6.916;2022-08-07T08:40:06;19.30;1.00
15713;DHT22;7957;51.608;6.916;2022-08-07T08:42:38;19.40;1.00
15713;DHT22;7957;51.608;6.916;2022-08-07T08:45:13;19.50;1.00
15713;DHT22;7957;51.608;6.916;2022-08-07T08:47:51;19.50;1.00
15713;DHT22;7957;51.608;6.916;2022-08-07T08:50:24;19.60;1.00
15713;DHT22;7957;51.608;6.916;2022-08-07T08:53:01;19.70;1.00
15713;DHT22;7957;51.608;6.916;2022-08-07T08:55:33;19.80;1.00
15713;DHT22;7957;51.608;6.916;2022-08-07T08:58:05;19.90;1.00
15713;DHT22;7957;51.608;6.916;2022-08-07T09:00:41;20.00;1.00
15713;DHT22;7957;51.608;6.916;2022-08-07T09:03:18;20.10;1.00
15713;DHT22;7957;51.608;6.916;2022-08-07T09:05:53;20.20;1.00
15713;DHT22;7957;51.608;6.916;2022-08-07T09:08:28;20.30;1.00
15713;DHT22;7957;51.608;6.916;2022-08-07T09:11:05;20.40;1.00
15713;DHT22;7957;51.608;6.916;2022-08-07T09:13:40;20.50;1.00
15713;DHT22;7957;51.608;6.916;2022-08-07T09:16:16;20.60;1.00
15713;DHT22;7957;51.608;6.916;2022-08-07T09:19:09;20.70;1.00
15713;DHT22;7957;51.608;6.916;2022-08-07T09:21:46;20.80;1.00
15713;DHT22;7957;51.608;6.916;2022-08-07T09:24:25;20.90;1.00
15713;DHT22;7957;51.608;6.916;2022-08-07T09:26:56;21.10;1.00
15713;DHT22;7957;51.608;6.916;2022-08-07T09:29:38;21.20;1.00
15713;DHT22;7957;51.608;6.916;2022-08-07T09:32:16;21.30;1.00
15713;DHT22;7957;51.608;6.916;2022-08-07T09:34:57;21.40;1.00
15713;DHT22;7957;51.608;6.916;2022-08-07T09:37:33;21.60;1.00
15713;DHT22;7957;51.608;6.916;2022-08-07T09:40:08;21.70;1.00
15713;DHT22;7957;51.608;6.916;2022-08-07T09:42:47;21.80;1.00
15713;DHT22;7957;51.608;6.916;2022-08-07T09:45:20;21.90;1.00
15713;DHT22;7957;51.608;6.916;2022-08-07T09:48:00;22.10;1.00
15713;DHT22;7957;51.608;6.916;2022-08-07T09:50:40;22.30;1.00
15713;DHT22;7957;51.608;6.916;2022-08-07T09:53:11;22.30;1.00
15713;DHT22;7957;51.608;6.916;2022-08-07T09:56:02;22.30;1.00
15713;DHT22;7957;51.608;6.916;2022-08-07T09:58:51;22.40;1.00
15713;DHT22;7957;51.608;6.916;2022-08-07T10:01:37;22.50;1.00
15713;DHT22;7957;51.608;6.916;2022-08-07T10:07:26;22.90;1.00
15713;DHT22;7957;51.608;6.916;2022-08-07T10:10:13;23.10;1.00
15713;DHT22;7957;51.608;6.916;2022-08-07T10:12:59;23.30;1.00
15713;DHT22;7957;51.608;6.916;2022-08-07T10:15:42;23.50;1.00
15713;DHT22;7957;51.608;6.916;2022-08-07T10:18:24;23.60;1.00
15713;DHT22;7957;51.608;6.916;2022-08-07T10:21:09;23.80;1.00
15713;DHT22;7957;51.608;6.916;2022-08-07T10:23:48;24.10;1.00
15713;DHT22;7957;51.608;6.916;2022-08-07T10:26:42;24.20;1.00
15713;DHT22;7957;51.608;6.916;2022-08-07T10:29:29;24.50;1.00
15713;DHT22;7957;51.608;6.916;2022-08-07T10:32:17;24.70;1.00
15713;DHT22;7957;51.608;6.916;2022-08-07T10:34:56;24.80;1.00
15713;DHT22;7957;51.608;6.916;2022-08-07T10:37:34;24.90;1.00
15713;DHT22;7957;51.608;6.916;2022-08-07T10:40:09;25.10;1.00
15713;DHT22;7957;51.608;6.916;2022-08-07T10:42:41;25.30;1.00
15713;DHT22;7957;51.608;6.916;2022-08-07T10:45:25;25.40;1.00
15713;DHT22;7957;51.608;6.916;2022-08-07T10:48:02;25.50;1.00
15713;DHT22;7957;51.608;6.916;2022-08-07T10:50:34;25.40;1.00
15713;DHT22;7957;51.608;6.916;2022-08-07T10:53:09;25.50;1.00
15713;DHT22;7957;51.608;6.916;2022-08-07T10:55:46;25.70;1.00
15713;DHT22;7957;51.608;6.916;2022-08-07T10:58:23;25.80;1.00
15713;DHT22;7957;51.608;6.916;2022-08-07T11:00:56;26.00;1.00
15713;DHT22;7957;51.608;6.916;2022-08-07T11:03:31;26.20;1.00
15713;DHT22;7957;51.608;6.916;2022-08-07T11:06:05;26.30;1.00
15713;DHT22;7957;51.608;6.916;2022-08-07T11:08:39;26.50;1.00
15713;DHT22;7957;51.608;6.916;2022-08-07T11:11:13;26.60;1.00
15713;DHT22;7957;51.608;6.916;2022-08-07T11:13:45;26.80;1.00
15713;DHT22;7957;51.608;6.916;2022-08-07T11:16:18;26.80;1.00
15713;DHT22;7957;51.608;6.916;2022-08-07T11:18:50;26.70;1.00
15713;DHT22;7957;51.608;6.916;2022-08-07T11:21:28;26.80;1.00
15713;DHT22;7957;51.608;6.916;2022-08-07T11:24:00;27.00;1.00
15713;DHT22;7957;51.608;6.916;2022-08-07T11:26:34;27.20;1.00
15713;DHT22;7957;51.608;6.916;2022-08-07T11:29:08;27.40;1.00
15713;DHT22;7957;51.608;6.916;2022-08-07T11:31:42;27.70;1.00
15713;DHT22;7957;51.608;6.916;2022-08-07T11:34:16;28.10;1.00
15713;DHT22;7957;51.608;6.916;2022-08-07T11:36:57;28.40;1.00
15713;DHT22;7957;51.608;6.916;2022-08-07T11:39:37;28.80;1.00
15713;DHT22;7957;51.608;6.916;2022-08-07T11:42:14;29.10;1.00
15713;DHT22;7957;51.608;6.916;2022-08-07T11:44:50;29.40;1.00
15713;DHT22;7957;51.608;6.916;2022-08-07T11:47:28;29.70;1.00
15713;DHT22;7957;51.608;6.916;2022-08-07T11:50:12;29.90;1.00
15713;DHT22;7957;51.608;6.916;2022-08-07T11:52:51;30.00;1.00
15713;DHT22;7957;51.608;6.916;2022-08-07T11:55:32;30.40;1.00
15713;DHT22;7957;51.608;6.916;2022-08-07T11:58:15;30.60;99.90
15713;DHT22;7957;51.608;6.916;2022-08-07T12:00:54;30.90;99.90
15713;DHT22;7957;51.608;6.916;2022-08-07T12:03:42;31.20;99.90
15713;DHT22;7957;51.608;6.916;2022-08-07T12:06:23;31.40;99.90
15713;DHT22;7957;51.608;6.916;2022-08-07T12:09:01;31.60;99.90
15713;DHT22;7957;51.608;6.916;2022-08-07T12:11:41;31.80;99.90
15713;DHT22;7957;51.608;6.916;2022-08-07T12:14:15;32.00;99.90
15713;DHT22;7957;51.608;6.916;2022-08-07T12:16:45;32.20;99.90
15713;DHT22;7957;51.608;6.916;2022-08-07T12:19:18;32.40;99.90
15713;DHT22;7957;51.608;6.916;2022-08-07T12:21:53;32.50;99.90
15713;DHT22;7957;51.608;6.916;2022-08-07T12:24:30;32.60;99.90
15713;DHT22;7957;51.608;6.916;2022-08-07T12:27:03;32.70;99.90
15713;DHT22;7957;51.608;6.916;2022-08-07T12:29:40;32.80;99.90
15713;DHT22;7957;51.608;6.916;2022-08-07T12:32:13;32.90;99.90
15713;DHT22;7957;51.608;6.916;2022-08-07T12:34:42;33.00;99.90
15713;DHT22;7957;51.608;6.916;2022-08-07T12:37:12;33.10;99.90
15713;DHT22;7957;51.608;6.916;2022-08-07T12:39:43;33.10;99.90
15713;DHT22;7957;51.608;6.916;2022-08-07T12:42:13;33.10;99.90
15713;DHT22;7957;51.608;6.916;2022-08-07T12:44:45;33.10;99.90
15713;DHT22;7957;51.608;6.916;2022-08-07T12:47:20;33.20;99.90
15713;DHT22;7957;51.608;6.916;2022-08-07T12:49:56;33.20;99.90
15713;DHT22;7957;51.608;6.916;2022-08-07T12:52:46;33.20;99.90
15713;DHT22;7957;51.608;6.916;2022-08-07T12:55:20;33.20;99.90
15713;DHT22;7957;51.608;6.916;2022-08-07T12:57:48;33.10;99.90
15713;DHT22;7957;51.608;6.916;2022-08-07T13:00:17;33.10;99.90
15713;DHT22;7957;51.608;6.916;2022-08-07T13:03:05;33.20;99.90
15713;DHT22;7957;51.608;6.916;2022-08-07T13:05:57;33.20;99.90
15713;DHT22;7957;51.608;6.916;2022-08-07T13:08:34;33.20;99.90
15713;DHT22;7957;51.608;6.916;2022-08-07T13:11:21;33.10;99.90
15713;DHT22;7957;51.608;6.916;2022-08-07T13:13:55;33.10;99.90
15713;DHT22;7957;51.608;6.916;2022-08-07T13:16:30;33.20;99.90
15713;DHT22;7957;51.608;6.916;2022-08-07T13:19:07;33.10;99.90
15713;DHT22;7957;51.608;6.916;2022-08-07T13:21:39;33.10;99.90
15713;DHT22;7957;51.608;6.916;2022-08-07T13:24:17;33.10;99.90
15713;DHT22;7957;51.608;6.916;2022-08-07T13:26:50;32.90;99.90
15713;DHT22;7957;51.608;6.916;2022-08-07T13:29:22;33.00;99.90
15713;DHT22;7957;51.608;6.916;2022-08-07T13:31:52;33.00;99.90
15713;DHT22;7957;51.608;6.916;2022-08-07T13:34:25;33.00;99.90
15713;DHT22;7957;51.608;6.916;2022-08-07T13:36:58;32.80;99.90
15713;DHT22;7957;51.608;6.916;2022-08-07T13:39:34;32.80;99.90
15713;DHT22;7957;51.608;6.916;2022-08-07T13:42:01;32.60;99.90
15713;DHT22;7957;51.608;6.916;2022-08-07T13:44:32;32.40;99.90
15713;DHT22;7957;51.608;6.916;2022-08-07T13:47:06;32.10;99.90
15713;DHT22;7957;51.608;6.916;2022-08-07T13:49:38;31.90;99.90
15713;DHT22;7957;51.608;6.916;2022-08-07T13:52:08;31.70;99.90
15713;DHT22;7957;51.608;6.916;2022-08-07T13:54:38;31.60;99.90
15713;DHT22;7957;51.608;6.916;2022-08-07T13:57:09;31.50;99.90
15713;DHT22;7957;51.608;6.916;2022-08-07T13:59:41;31.40;99.90
15713;DHT22;7957;51.608;6.916;2022-08-07T14:02:12;31.40;99.90
15713;DHT22;7957;51.608;6.916;2022-08-07T14:04:48;31.30;99.90
15713;DHT22;7957;51.608;6.916;2022-08-07T14:07:18;31.20;99.90
15713;DHT22;7957;51.608;6.916;2022-08-07T14:09:46;31.10;99.90
15713;DHT22;7957;51.608;6.916;2022-08-07T14:12:21;31.10;99.90
15713;DHT22;7957;51.608;6.916;2022-08-07T14:15:00;31.00;99.90
15713;DHT22;7957;51.608;6.916;2022-08-07T14:17:32;30.90;99.90
15713;DHT22;7957;51.608;6.916;2022-08-07T14:20:05;30.80;99.90
15713;DHT22;7957;51.608;6.916;2022-08-07T14:22:34;30.60;99.90
15713;DHT22;7957;51.608;6.916;2022-08-07T14:25:08;30.50;99.90
15713;DHT22;7957;51.608;6.916;2022-08-07T14:27:38;30.30;99.90
15713;DHT22;7957;51.608;6.916;2022-08-07T14:30:09;30.10;99.90
15713;DHT22;7957;51.608;6.916;2022-08-07T14:32:43;29.80;99.90
15713;DHT22;7957;51.608;6.916;2022-08-07T14:35:16;29.70;99.90
15713;DHT22;7957;51.608;6.916;2022-08-07T14:37:46;29.50;99.90
15713;DHT22;7957;51.608;6.916;2022-08-07T14:40:16;29.40;99.90
15713;DHT22;7957;51.608;6.916;2022-08-07T14:42:44;29.30;99.90
15713;DHT22;7957;51.608;6.916;2022-08-07T14:45:12;29.00;99.90
15713;DHT22;7957;51.608;6.916;2022-08-07T14:47:42;28.80;99.90
15713;DHT22;7957;51.608;6.916;2022-08-07T14:50:10;28.60;99.90
15713;DHT22;7957;51.608;6.916;2022-08-07T14:52:44;28.50;99.90
15713;DHT22;7957;51.608;6.916;2022-08-07T14:55:12;28.40;99.90
15713;DHT22;7957;51.608;6.916;2022-08-07T14:57:40;28.30;99.90
15713;DHT22;7957;51.608;6.916;2022-08-07T15:00:09;28.20;99.90
15713;DHT22;7957;51.608;6.916;2022-08-07T15:02:37;28.20;99.90
15713;DHT22;7957;51.608;6.916;2022-08-07T15:05:07;28.00;99.90
15713;DHT22;7957;51.608;6.916;2022-08-07T15:07:35;28.00;99.90
15713;DHT22;7957;51.608;6.916;2022-08-07T15:10:03;28.00;99.90
15713;DHT22;7957;51.608;6.916;2022-08-07T15:12:34;28.00;99.90
15713;DHT22;7957;51.608;6.916;2022-08-07T15:15:06;27.90;99.90
15713;DHT22;7957;51.608;6.916;2022-08-07T15:17:39;27.90;99.90
15713;DHT22;7957;51.608;6.916;2022-08-07T15:20:11;28.00;99.90
15713;DHT22;7957;51.608;6.916;2022-08-07T15:22:45;28.00;99.90
15713;DHT22;7957;51.608;6.916;2022-08-07T15:25:15;28.00;99.90
15713;DHT22;7957;51.608;6.916;2022-08-07T15:27:47;28.00;99.90
15713;DHT22;7957;51.608;6.916;2022-08-07T15:30:15;27.90;99.90
15713;DHT22;7957;51.608;6.916;2022-08-07T15:32:46;27.90;99.90
15713;DHT22;7957;51.608;6.916;2022-08-07T15:35:19;27.90;99.90
15713;DHT22;7957;51.608;6.916;2022-08-07T15:37:49;27.80;99.90
15713;DHT22;7957;51.608;6.916;2022-08-07T15:40:17;27.80;99.90
15713;DHT22;7957;51.608;6.916;2022-08-07T15:42:52;27.80;99.90
15713;DHT22;7957;51.608;6.916;2022-08-07T15:45:32;27.70;99.90
15713;DHT22;7957;51.608;6.916;2022-08-07T15:48:04;27.60;99.90
15713;DHT22;7957;51.608;6.916;2022-08-07T15:50:36;27.60;99.90
15713;DHT22;7957;51.608;6.916;2022-08-07T15:53:07;27.60;99.90
15713;DHT22;7957;51.608;6.916;2022-08-07T15:55:39;27.50;99.90
15713;DHT22;7957;51.608;6.916;2022-08-07T15:58:08;27.50;99.90
15713;DHT22;7957;51.608;6.916;2022-08-07T16:00:37;27.40;99.90
15713;DHT22;7957;51.608;6.916;2022-08-07T16:03:09;27.30;99.90
15713;DHT22;7957;51.608;6.916;2022-08-07T16:05:42;27.30;99.90
15713;DHT22;7957;51.608;6.916;2022-08-07T16:08:12;27.10;99.90
15713;DHT22;7957;51.608;6.916;2022-08-07T16:10:42;26.90;99.90
15713;DHT22;7957;51.608;6.916;2022-08-07T16:16:10;26.70;99.90
15713;DHT22;7957;51.608;6.916;2022-08-07T16:18:58;26.60;99.90
15713;DHT22;7957;51.608;6.916;2022-08-07T16:21:37;26.50;99.90
15713;DHT22;7957;51.608;6.916;2022-08-07T16:24:13;26.40;99.90
15713;DHT22;7957;51.608;6.916;2022-08-07T16:26:51;26.30;99.90
15713;DHT22;7957;51.608;6.916;2022-08-07T16:29:29;26.20;99.90
15713;DHT22;7957;51.608;6.916;2022-08-07T16:32:00;26.20;99.90